sensor_id;sensor_type;location;lat;lon;timestamp;pressure;altitude;pressure_sealevel;temperature;humidity
79316;BME280;68779;50.036;19.964;2023-12-20T00:28:32;101126.80;;;10.83;43.72
79316;BME280;68779;50.036;19.964;2023-12-20T01:29:21;101074.04;;;10.56;43.97
79316;BME280;68779;50.036;19.964;2023-12-20T01:59:37;101004.96;;;10.77;43.75
79316;BME280;68779;50.036;19.964;2023-12-20T02:29:56;100978.14;;;10.04;44.93
79316;BME280;68779;50.036;19.964;2023-12-20T03:00:11;100983.17;;;9.69;44.63
79316;BME280;68779;50.036;19.964;2023-12-20T03:30:26;100978.44;;;9.41;45.61
79316;BME280;68779;50.036;19.964;2023-12-20T04:00:40;100984.03;;;10.09;44.43
79316;BME280;68779;50.036;19.964;2023-12-20T04:30:56;100954.27;;;10.76;42.31
79316;BME280;68779;50.036;19.964;2023-12-20T05:01:11;100983.32;;;10.76;40.10
79316;BME280;68779;50.036;19.964;2023-12-20T06:02:03;100947.95;;;11.04;48.94
79316;BME280;68779;50.036;19.964;2023-12-20T06:32:19;100983.00;;;11.36;50.34
79316;BME280;68779;50.036;19.964;2023-12-20T07:02:34;100976.85;;;11.34;52.28
79316;BME280;68779;50.036;19.964;2023-12-20T07:32:49;101002.34;;;10.66;55.25
79316;BME280;68779;50.036;19.964;2023-12-20T08:03:04;101012.93;;;10.60;56.77
79316;BME280;68779;50.036;19.964;2023-12-20T08:33:19;101011.25;;;10.68;56.41
79316;BME280;68779;50.036;19.964;2023-12-20T09:03:33;101020.02;;;11.10;55.77
79316;BME280;68779;50.036;19.964;2023-12-20T09:33:47;101013.84;;;10.89;55.98
79316;BME280;68779;50.036;19.964;2023-12-20T10:04:06;100990.91;;;10.63;57.13
79316;BME280;68779;50.036;19.964;2023-12-20T10:34:27;100972.44;;;10.47;57.04
79316;BME280;68779;50.036;19.964;2023-12-20T11:35:18;100959.67;;;10.28;58.65
79316;BME280;68779;50.036;19.964;2023-12-20T12:36:10;100935.52;;;10.44;57.92
79316;BME280;68779;50.036;19.964;2023-12-20T13:06:26;100939.08;;;10.35;57.97
79316;BME280;68779;50.036;19.964;2023-12-20T13:36:40;100947.09;;;10.37;58.26
79316;BME280;68779;50.036;19.964;2023-12-20T14:06:54;100944.10;;;10.78;55.91
79316;BME280;68779;50.036;19.964;2023-12-20T14:37:11;100954.42;;;10.75;56.10
79316;BME280;68779;50.036;19.964;2023-12-20T15:07:25;100940.93;;;11.11;54.10
79316;BME280;68779;50.036;19.964;2023-12-20T15:37:41;100951.58;;;10.08;55.89
79316;BME280;68779;50.036;19.964;2023-12-20T16:07:57;100968.42;;;10.51;54.34
79316;BME280;68779;50.036;19.964;2023-12-20T16:38:11;100961.37;;;10.29;55.16
79316;BME280;68779;50.036;19.964;2023-12-20T17:08:26;100953.75;;;10.14;54.69
79316;BME280;68779;50.036;19.964;2023-12-20T17:38:41;100941.43;;;9.70;54.28
79316;BME280;68779;50.036;19.964;2023-12-20T18:24:16;100928.79;;;10.48;51.60
79316;BME280;68779;50.036;19.964;2023-12-20T18:54:36;100927.77;;;11.07;49.78
79316;BME280;68779;50.036;19.964;2023-12-20T19:24:49;100936.65;;;10.42;50.98
79316;BME280;68779;50.036;19.964;2023-12-20T19:55:04;100856.77;;;10.05;49.87
79316;BME280;68779;50.036;19.964;2023-12-20T21:26:22;100885.42;;;9.78;49.51
79316;BME280;68779;50.036;19.964;2023-12-20T21:56:44;100867.28;;;9.79;49.81
79316;BME280;68779;50.036;19.964;2023-12-20T22:26:57;100861.88;;;9.89;49.78
79316;BME280;68779;50.036;19.964;2023-12-20T22:57:13;100840.87;;;9.91;50.31
79316;BME280;68779;50.036;19.964;2023-12-20T23:57:57;100802.47;;;10.24;49.92
